Terminal Aerodrome Forecast
Issued by NWS Pocatello, ID

Home | Current Version | Previous Version | Text Only | Print | Product List | Glossary On
Versions: 1 2 3 4 5 6 7 8 9 10 11 12 13 14 15 16 17 18 19 20 21
000
FTUS45 KPIH 011800 AAA
TAFBYI
TAF AMD
KBYI 011829Z 0118/0218 06007KT 6SM BR SCT004 OVC100
     FM012100 VRB04KT P6SM FEW008 BKN100
     FM020300 25008KT P6SM VCSH SCT008 OVC040=

USA.gov is the U.S. government's official web portal to all federal, state and local government web resources and services.